Simsboro, Texas
Current Conditions -  °F | °C
As of 7:55 PM on Thursday 18 Dec 2014 (Local Time) from KLXY Reporting Station
Overcast Overcast  
Wind Chill: 48°   Ceiling: 1100
Heat Index: 50°   Visibility: 10mi
Dew Point: 48°   Wind: 5mph
Humidity: 93%   Direction: 360°N
Pressure: 30.13"   Gusts: NA
Location:  31.6463°N, 96.2786°W
Report Text: KLXY 190155Z AUTO 36004KT 10SM OVC011 10/09 A3013 RMK AO2 T00980087
Loading
Personal Weather Stations






























Interactive Weather Map New forecast layout! Learn more

10-Day Weather Forecast

Advertisements
Track Severe Weather on mobile